Time;durP1;ratioP1;P1;durP2;ratioP2;P2;SDS_P1;SDS_P2;PMS_P1;PMS_P2;Temp;Humidity;BMP_temperature;BMP_pressure;BME280_temperature;BME280_humidity;BME280_pressure;Samples;Min_cycle;Max_cycle;Signal;HPM_P1;HPM_P2
2021/03/04 00:00:13;;;;;;;22.67;5.83;;;3.90;99.90;;;;;;5050017;28;20422;-74
2021/03/04 00:02:40;;;;;;;18.88;7.95;;;3.90;99.90;;;;;;5066748;28;20049;-75
2021/03/04 00:05:07;;;;;;;13.25;7.00;;;3.90;99.90;;;;;;5052377;28;20068;-75
2021/03/04 00:07:34;;;;;;;7.78;4.90;;;3.90;99.90;;;;;;5070396;28;20021;-75
2021/03/04 00:10:00;;;;;;;9.95;5.53;;;3.90;99.90;;;;;;5070302;28;20383;-75
2021/03/04 00:12:26;;;;;;;5.13;3.13;;;3.90;99.90;;;;;;5073667;28;20044;-78
2021/03/04 00:14:52;;;;;;;16.47;6.83;;;3.80;99.90;;;;;;5054544;28;20124;-76
2021/03/04 00:17:18;;;;;;;2.87;2.67;;;3.80;99.90;;;;;;5070515;28;20268;-76
2021/03/04 00:19:43;;;;;;;15.57;7.28;;;3.90;99.90;;;;;;5037973;28;20071;-76
2021/03/04 00:22:10;;;;;;;8.70;5.47;;;3.90;99.90;;;;;;5072175;28;20036;-79
2021/03/04 00:24:35;;;;;;;10.95;6.00;;;3.80;99.90;;;;;;5073049;28;20454;-77
2021/03/04 00:27:01;;;;;;;17.00;6.10;;;3.90;99.90;;;;;;5069748;28;20040;-76
2021/03/04 00:29:27;;;;;;;7.55;5.40;;;3.90;99.90;;;;;;5052132;28;20032;-88
2021/03/04 00:31:53;;;;;;;4.23;3.10;;;3.80;99.90;;;;;;5048224;28;20021;-77
2021/03/04 00:34:18;;;;;;;8.10;4.30;;;3.80;99.90;;;;;;5068679;28;20025;-77
2021/03/04 00:36:44;;;;;;;9.20;5.27;;;3.80;99.90;;;;;;5058351;28;20064;-75
2021/03/04 00:39:10;;;;;;;18.20;4.37;;;3.80;99.90;;;;;;5051620;28;20403;-76
2021/03/04 00:41:36;;;;;;;9.13;5.00;;;3.70;99.90;;;;;;5071380;28;20035;-77
2021/03/04 00:44:04;;;;;;;9.88;7.25;;;3.80;99.90;;;;;;5069567;28;20036;-75
2021/03/04 00:46:30;;;;;;;8.68;3.67;;;3.80;99.90;;;;;;5053437;28;20416;-75
2021/03/04 00:48:55;;;;;;;5.97;5.10;;;3.70;99.90;;;;;;5056252;28;20039;-75
2021/03/04 00:51:21;;;;;;;7.67;4.83;;;3.80;99.90;;;;;;5073491;28;20020;-76
2021/03/04 00:53:47;;;;;;;6.53;3.43;;;3.80;99.90;;;;;;5052493;28;20118;-76
2021/03/04 00:56:12;;;;;;;8.90;4.17;;;3.80;99.90;;;;;;5066683;28;20025;-76
2021/03/04 00:58:38;;;;;;;5.23;3.77;;;3.70;99.90;;;;;;5065986;28;20314;-78
2021/03/04 01:01:05;;;;;;;10.63;6.13;;;3.80;99.90;;;;;;5075201;28;20107;-76
2021/03/04 01:03:31;;;;;;;;;;;3.80;99.90;;;;;;5055161;28;20020;-75
2021/03/04 01:05:57;;;;;;;17.13;6.80;;;3.80;99.90;;;;;;5074420;28;19909;-76
2021/03/04 01:08:26;;;;;;;19.42;6.40;;;3.70;99.90;;;;;;5071009;28;20048;-77
2021/03/04 01:10:52;;;;;;;8.40;5.10;;;3.70;99.90;;;;;;5064888;28;20029;-76
2021/03/04 01:13:19;;;;;;;7.43;4.33;;;3.80;99.90;;;;;;5047656;28;20030;-75
2021/03/04 01:15:44;;;;;;;8.60;4.65;;;3.70;99.90;;;;;;5048900;28;20024;-75
2021/03/04 01:18:10;;;;;;;12.13;9.50;;;3.70;99.90;;;;;;5051023;28;20052;-82
2021/03/04 01:20:36;;;;;;;17.97;6.97;;;3.70;99.90;;;;;;5070676;28;20053;-76
2021/03/04 01:23:02;;;;;;;9.93;6.87;;;3.70;99.90;;;;;;5068450;28;20131;-76
2021/03/04 01:25:28;;;;;;;5.23;4.20;;;3.80;99.90;;;;;;5071685;28;20111;-76
2021/03/04 01:27:53;;;;;;;13.95;6.03;;;3.70;99.90;;;;;;5065171;28;20060;-75
2021/03/04 01:30:25;;;;;;;16.40;8.17;;;3.80;99.90;;;;;;5065044;28;20020;-75
2021/03/04 01:32:51;;;;;;;11.95;5.18;;;3.70;99.90;;;;;;5061231;28;20041;-75
2021/03/04 01:35:17;;;;;;;18.90;6.40;;;3.70;99.90;;;;;;5049817;28;20035;-75
2021/03/04 01:37:43;;;;;;;8.40;6.53;;;3.70;99.90;;;;;;5054571;28;20414;-79
2021/03/04 01:40:16;;;;;;;12.60;5.18;;;3.80;99.90;;;;;;5053063;28;20024;-75
2021/03/04 01:42:41;;;;;;;35.38;6.85;;;3.70;99.90;;;;;;5069857;28;20021;-79
2021/03/04 01:45:08;;;;;;;5.47;4.70;;;3.70;99.90;;;;;;5073198;28;20066;-78
2021/03/04 01:47:40;;;;;;;7.78;5.45;;;3.70;99.90;;;;;;5052511;28;20021;-75
2021/03/04 01:50:07;;;;;;;4.40;3.88;;;3.60;99.90;;;;;;5052808;28;20024;-78
2021/03/04 01:52:34;;;;;;;6.93;4.45;;;3.60;99.90;;;;;;5067998;28;20027;-75
2021/03/04 01:55:00;;;;;;;8.83;3.20;;;3.60;99.90;;;;;;5050161;28;20028;-75
2021/03/04 01:57:30;;;;;;;6.25;5.50;;;3.60;99.90;;;;;;5070614;28;20272;-75
2021/03/04 01:59:57;;;;;;;10.75;5.93;;;3.60;99.90;;;;;;5068323;28;20033;-75
2021/03/04 02:02:22;;;;;;;;;;;3.70;99.90;;;;;;5069304;28;20050;-77
2021/03/04 02:04:50;;;;;;;5.17;4.67;;;3.60;99.90;;;;;;5069468;28;19908;-77
2021/03/04 02:07:34;;;;;;;10.18;5.75;;;3.60;99.90;;;;;;5053220;28;20025;-76
2021/03/04 02:10:25;;;;;;;3.00;2.55;;;3.60;99.90;;;;;;5068263;28;20021;-75
2021/03/04 02:13:00;;;;;;;7.65;5.13;;;3.60;99.90;;;;;;5067304;28;20669;-75
2021/03/04 02:15:35;;;;;;;12.95;4.82;;;3.50;99.90;;;;;;5047809;28;20044;-76
2021/03/04 02:18:04;;;;;;;9.60;5.55;;;3.50;99.90;;;;;;5062414;28;20102;-80
2021/03/04 02:20:58;;;;;;;3.47;3.05;;;3.50;99.90;;;;;;5042758;28;20025;-75
2021/03/04 02:23:47;;;;;;;9.10;3.35;;;3.50;99.90;;;;;;5076398;28;20028;-77
2021/03/04 02:27:10;;;;;;;9.63;4.90;;;3.50;99.90;;;;;;5072854;28;20415;-79
2021/03/04 02:29:51;;;;;;;10.05;6.72;;;3.50;99.90;;;;;;4977026;28;20143;-75
2021/03/04 02:32:22;;;;;;;14.38;5.95;;;3.60;99.90;;;;;;4995420;28;20028;-75
2021/03/04 02:34:54;;;;;;;22.58;4.55;;;3.60;99.90;;;;;;4977676;28;20034;-76
2021/03/04 02:37:24;;;;;;;8.85;5.93;;;3.60;99.90;;;;;;4995962;28;20105;-77
2021/03/04 02:39:52;;;;;;;20.60;6.20;;;3.50;99.90;;;;;;4996445;28;20043;-78
2021/03/04 02:42:22;;;;;;;9.18;6.15;;;3.60;99.90;;;;;;4995328;28;20101;-75
2021/03/04 02:44:50;;;;;;;11.82;5.30;;;3.60;99.90;;;;;;4993208;28;20035;-77
2021/03/04 02:47:20;;;;;;;9.65;6.75;;;3.60;99.90;;;;;;4977750;28;20045;-75
2021/03/04 02:49:46;;;;;;;8.65;5.18;;;3.60;99.90;;;;;;4979861;28;20139;-78
2021/03/04 02:52:13;;;;;;;9.02;4.80;;;3.60;99.90;;;;;;4992171;28;20409;-75
2021/03/04 02:54:39;;;;;;;;;;;3.50;99.90;;;;;;4996493;28;20035;-76
2021/03/04 02:57:08;;;;;;;8.60;4.15;;;3.50;99.90;;;;;;4995156;28;19919;-77
2021/03/04 02:59:37;;;;;;;6.80;2.92;;;3.50;99.90;;;;;;5010365;28;20486;-78
2021/03/04 03:02:03;;;;;;;8.77;4.47;;;3.40;99.90;;;;;;5081841;28;20029;-75
2021/03/04 03:04:31;;;;;;;18.58;4.00;;;3.40;99.90;;;;;;5072099;28;20029;-76
2021/03/04 03:06:58;;;;;;;10.80;4.70;;;3.40;99.90;;;;;;5077092;28;20040;-76
2021/03/04 03:09:24;;;;;;;4.95;3.60;;;3.40;99.90;;;;;;5077128;28;20457;-75
2021/03/04 03:11:51;;;;;;;1.07;1.07;;;3.40;99.90;;;;;;5067432;28;20028;-76
2021/03/04 03:14:17;;;;;;;2.50;2.13;;;3.40;99.90;;;;;;5076328;28;20029;-78
2021/03/04 03:16:45;;;;;;;3.28;2.83;;;3.40;99.90;;;;;;5055457;28;20029;-77
2021/03/04 03:19:11;;;;;;;8.15;5.47;;;3.50;99.90;;;;;;5071796;28;20075;-75
2021/03/04 03:21:37;;;;;;;9.13;6.50;;;3.50;99.90;;;;;;5059601;28;20032;-80
2021/03/04 03:24:03;;;;;;;8.85;6.38;;;3.50;99.90;;;;;;5068447;28;20124;-75
2021/03/04 03:26:31;;;;;;;12.45;4.82;;;3.40;99.90;;;;;;5066202;28;20052;-77
2021/03/04 03:28:56;;;;;;;13.50;6.40;;;3.50;99.90;;;;;;5076281;28;20434;-76
2021/03/04 03:31:24;;;;;;;14.37;4.60;;;3.50;99.90;;;;;;5058796;28;20100;-74
2021/03/04 03:33:50;;;;;;;17.83;5.43;;;3.50;99.90;;;;;;5058729;28;20319;-79
2021/03/04 03:36:16;;;;;;;4.20;3.87;;;3.60;99.90;;;;;;5080033;28;20024;-78
2021/03/04 03:38:42;;;;;;;9.20;4.60;;;3.60;99.90;;;;;;5071996;28;20021;-77
2021/03/04 03:41:09;;;;;;;6.68;4.63;;;3.60;99.90;;;;;;5047875;28;20037;-76
2021/03/04 03:43:35;;;;;;;8.85;6.88;;;3.60;99.90;;;;;;5052182;28;20435;-76
2021/03/04 03:46:03;;;;;;;6.00;5.20;;;3.60;99.90;;;;;;5046429;28;20032;-75
2021/03/04 03:48:30;;;;;;;4.28;3.47;;;3.60;99.90;;;;;;5076112;28;20055;-76
2021/03/04 03:50:56;;;;;;;;;;;3.60;99.90;;;;;;5064835;28;20071;-79
2021/03/04 03:53:23;;;;;;;9.80;4.72;;;3.70;99.90;;;;;;5056204;28;19916;-76
2021/03/04 03:55:52;;;;;;;7.03;4.05;;;3.60;99.90;;;;;;5073309;28;20139;-77
2021/03/04 03:58:19;;;;;;;6.72;5.80;;;3.70;99.90;;;;;;5074485;28;20317;-75
2021/03/04 04:00:50;;;;;;;15.82;6.68;;;3.60;99.90;;;;;;5057428;28;20115;-77
2021/03/04 04:03:16;;;;;;;19.90;7.63;;;3.60;99.90;;;;;;5073921;28;20442;-75
2021/03/04 04:05:42;;;;;;;5.83;4.83;;;3.60;99.90;;;;;;5055492;28;20036;-75
2021/03/04 04:08:07;;;;;;;9.70;4.47;;;3.60;99.90;;;;;;5058145;28;20464;-75
2021/03/04 04:10:37;;;;;;;4.60;4.20;;;3.60;99.90;;;;;;5075504;28;20021;-75
2021/03/04 04:13:03;;;;;;;7.40;4.00;;;3.60;99.90;;;;;;5043913;28;20532;-76
2021/03/04 04:15:30;;;;;;;19.47;4.83;;;3.60;99.90;;;;;;5058286;28;20108;-75
2021/03/04 04:17:58;;;;;;;5.32;4.10;;;3.50;99.90;;;;;;5068734;28;20318;-75
2021/03/04 04:20:24;;;;;;;3.42;3.08;;;3.60;99.90;;;;;;5066192;28;20434;-75
2021/03/04 04:22:52;;;;;;;8.65;5.82;;;3.60;99.90;;;;;;5051127;28;20422;-78
2021/03/04 04:25:22;;;;;;;17.00;5.88;;;3.60;99.90;;;;;;5071284;28;20037;-75
2021/03/04 04:27:50;;;;;;;15.35;4.93;;;3.60;99.90;;;;;;5053011;28;20048;-76
2021/03/04 04:30:16;;;;;;;6.68;4.88;;;3.60;99.90;;;;;;5050457;28;20090;-81
2021/03/04 04:32:43;;;;;;;19.02;7.88;;;3.70;99.90;;;;;;5071921;28;20020;-75
2021/03/04 04:35:09;;;;;;;15.40;5.75;;;3.70;99.90;;;;;;5070747;28;20029;-77
2021/03/04 04:37:35;;;;;;;8.05;5.97;;;3.70;99.90;;;;;;5069713;28;20048;-77
2021/03/04 04:40:01;;;;;;;12.10;5.90;;;3.70;99.90;;;;;;5067062;28;20111;-76
2021/03/04 04:42:27;;;;;;;12.43;6.87;;;3.60;99.90;;;;;;5069638;28;20359;-77
2021/03/04 04:44:53;;;;;;;7.10;6.43;;;3.70;99.90;;;;;;5049574;28;20119;-75
2021/03/04 04:47:18;;;;;;;7.63;5.07;;;3.70;99.90;;;;;;5050053;28;20027;-75
2021/03/04 04:49:44;;;;;;;33.47;4.30;;;3.70;99.90;;;;;;5067997;28;20049;-75
2021/03/04 04:52:10;;;;;;;22.43;6.33;;;3.70;99.90;;;;;;5052522;28;20021;-75
2021/03/04 04:54:35;;;;;;;14.03;5.17;;;3.70;99.90;;;;;;5050018;28;20078;-77
2021/03/04 04:57:01;;;;;;;10.00;4.07;;;3.70;99.90;;;;;;5049013;28;20036;-75
2021/03/04 04:59:27;;;;;;;13.85;5.18;;;3.60;99.90;;;;;;5071842;28;20031;-76
2021/03/04 05:01:52;;;;;;;13.53;6.50;;;3.70;99.90;;;;;;5072404;28;20031;-75
2021/03/04 05:04:18;;;;;;;2.93;2.73;;;3.70;99.90;;;;;;5070711;28;20043;-77
2021/03/04 05:06:43;;;;;;;6.83;5.30;;;3.70;99.90;;;;;;5067199;28;20343;-75
2021/03/04 05:09:09;;;;;;;17.17;4.57;;;3.70;99.90;;;;;;5070690;28;20058;-80
2021/03/04 05:11:35;;;;;;;9.27;5.60;;;3.70;99.90;;;;;;5071096;28;20449;-77
2021/03/04 05:14:02;;;;;;;9.37;5.73;;;3.60;99.90;;;;;;5067985;28;20047;-77
2021/03/04 05:16:27;;;;;;;20.08;4.95;;;3.60;99.90;;;;;;5065863;28;20052;-76
2021/03/04 05:18:53;;;;;;;6.47;4.63;;;3.70;99.90;;;;;;5048458;28;20088;-81
2021/03/04 05:21:19;;;;;;;7.67;5.73;;;3.60;99.90;;;;;;5064364;28;20029;-75
2021/03/04 05:23:44;;;;;;;6.87;4.50;;;3.60;99.90;;;;;;5047696;28;20132;-76
2021/03/04 05:26:10;;;;;;;10.23;3.83;;;3.60;99.90;;;;;;5050142;28;20021;-75
2021/03/04 05:28:36;;;;;;;11.17;5.83;;;3.60;99.90;;;;;;5066031;28;20347;-76
2021/03/04 05:31:01;;;;;;;13.70;8.67;;;3.60;99.90;;;;;;5068555;28;20067;-75
2021/03/04 05:33:27;;;;;;;9.27;5.47;;;3.70;99.90;;;;;;5064777;28;20034;-78
2021/03/04 05:35:53;;;;;;;6.73;4.20;;;3.70;99.90;;;;;;5066484;28;20031;-74
2021/03/04 05:38:18;;;;;;;5.80;5.30;;;3.70;99.90;;;;;;5066011;28;20107;-76
2021/03/04 05:40:44;;;;;;;9.87;5.50;;;3.60;99.90;;;;;;5052103;28;20446;-77
2021/03/04 05:43:10;;;;;;;7.32;5.47;;;3.60;99.90;;;;;;5064824;28;20060;-75
2021/03/04 05:45:39;;;;;;;11.20;4.50;;;3.70;99.90;;;;;;5045949;28;20433;-76
2021/03/04 05:48:08;;;;;;;5.45;4.80;;;3.70;99.90;;;;;;5066909;28;20740;-76
2021/03/04 05:50:46;;;;;;;9.40;5.07;;;3.60;99.90;;;;;;5069067;28;20028;-76
2021/03/04 05:53:14;;;;;;;10.73;4.38;;;3.60;99.90;;;;;;5070032;28;20078;-84
2021/03/04 05:55:43;;;;;;;35.50;4.90;;;3.60;99.90;;;;;;5053212;28;20033;-76
2021/03/04 05:58:10;;;;;;;9.10;6.30;;;3.60;99.90;;;;;;5055352;28;20021;-79
2021/03/04 06:00:37;;;;;;;6.95;6.18;;;3.70;99.90;;;;;;5070158;28;20522;-75
2021/03/04 06:03:06;;;;;;;15.90;6.10;;;3.60;99.90;;;;;;5071173;28;20033;-74
2021/03/04 06:05:32;;;;;;;15.77;6.00;;;3.70;99.90;;;;;;5075570;28;20101;-77
2021/03/04 06:08:01;;;;;;;7.65;5.93;;;3.70;99.90;;;;;;5076386;28;20047;-75
2021/03/04 06:10:28;;;;;;;7.30;5.32;;;3.70;99.90;;;;;;5073197;28;20025;-77
2021/03/04 06:12:54;;;;;;;20.75;7.57;;;3.70;99.90;;;;;;5071192;28;20413;-77
2021/03/04 06:15:22;;;;;;;11.93;7.03;;;3.70;99.90;;;;;;5075102;28;20048;-75
2021/03/04 06:17:58;;;;;;;24.67;6.95;;;3.70;99.90;;;;;;5077874;28;20028;-76
2021/03/04 06:20:44;;;;;;;9.45;4.05;;;3.60;99.90;;;;;;5066782;28;20056;-77
2021/03/04 06:23:10;;;;;;;5.22;3.70;;;3.60;99.90;;;;;;5040459;28;20025;-76
2021/03/04 06:25:37;;;;;;;2.88;1.45;;;3.70;99.90;;;;;;5063907;28;20107;-78
2021/03/04 06:28:04;;;;;;;7.70;6.45;;;3.70;99.90;;;;;;5065375;28;20099;-76
2021/03/04 06:30:36;;;;;;;;;;;3.70;99.90;;;;;;5068430;28;20021;-76
2021/03/04 06:33:08;;;;;;;10.13;4.68;;;3.70;99.90;;;;;;5075624;28;19916;-76
2021/03/04 06:35:37;;;;;;;8.20;5.57;;;3.70;99.90;;;;;;5066310;28;20028;-76
2021/03/04 06:38:18;;;;;;;12.10;5.63;;;3.70;99.90;;;;;;5066551;28;20029;-77
2021/03/04 06:40:45;;;;;;;7.80;6.90;;;3.70;99.90;;;;;;5057727;28;20123;-76
2021/03/04 06:43:19;;;;;;;8.30;3.88;;;3.70;99.90;;;;;;5059176;28;20039;-77
2021/03/04 06:45:45;;;;;;;37.92;6.57;;;3.70;99.90;;;;;;5053031;28;20048;-76
2021/03/04 06:48:12;;;;;;;11.48;6.30;;;3.70;99.90;;;;;;5050743;28;20020;-76
2021/03/04 06:50:43;;;;;;;17.13;5.15;;;3.70;99.90;;;;;;5076153;28;20465;-75
2021/03/04 06:53:23;;;;;;;8.50;5.72;;;3.70;99.90;;;;;;5057255;28;20024;-78
2021/03/04 06:55:53;;;;;;;6.82;3.60;;;3.70;99.90;;;;;;5058330;28;20032;-78
2021/03/04 06:58:30;;;;;;;8.70;5.68;;;3.70;99.90;;;;;;5069816;28;20392;-77
2021/03/04 07:01:13;;;;;;;2.88;2.13;;;3.80;99.90;;;;;;5072156;28;20315;-76
2021/03/04 07:03:40;;;;;;;6.20;4.07;;;3.80;99.90;;;;;;5072307;28;20064;-77
2021/03/04 07:06:08;;;;;;;12.65;7.15;;;3.80;99.90;;;;;;5075438;28;20036;-76
2021/03/04 07:08:38;;;;;;;5.85;4.13;;;3.70;99.90;;;;;;5071686;28;20022;-75
2021/03/04 07:11:06;;;;;;;8.93;3.53;;;3.70;99.90;;;;;;5052502;28;20024;-76
2021/03/04 07:13:33;;;;;;;5.57;5.00;;;3.60;99.90;;;;;;5066709;28;20032;-80
2021/03/04 07:16:07;;;;;;;4.28;3.17;;;3.60;99.90;;;;;;5068777;28;20103;-84
2021/03/04 07:18:38;;;;;;;4.50;4.10;;;3.70;99.90;;;;;;5051207;28;20052;-76
2021/03/04 07:21:08;;;;;;;5.28;2.42;;;3.70;99.90;;;;;;5065528;28;20025;-77
2021/03/04 07:23:37;;;;;;;8.30;5.43;;;3.70;99.90;;;;;;5066408;28;20037;-76
2021/03/04 07:26:04;;;;;;;16.35;6.85;;;3.70;99.90;;;;;;5054866;28;20028;-77
2021/03/04 07:28:30;;;;;;;9.90;4.00;;;3.70;99.90;;;;;;5066960;28;20343;-77
2021/03/04 07:30:56;;;;;;;8.70;4.63;;;3.80;99.90;;;;;;5074746;28;20020;-76
2021/03/04 07:33:23;;;;;;;9.03;3.23;;;3.80;99.90;;;;;;5055292;28;20050;-76
2021/03/04 07:35:49;;;;;;;;;;;3.80;99.90;;;;;;5050871;28;20025;-77
2021/03/04 07:38:26;;;;;;;4.65;3.38;;;3.80;99.90;;;;;;5047168;28;19916;-76
2021/03/04 07:41:00;;;;;;;;;;;3.80;99.90;;;;;;5067129;28;20037;-84
2021/03/04 07:43:26;;;;;;;3.45;2.83;;;3.80;99.90;;;;;;5056728;28;20215;-75
2021/03/04 07:45:52;;;;;;;6.63;4.03;;;3.80;99.90;;;;;;5052340;28;20039;-79
2021/03/04 07:48:18;;;;;;;6.20;2.47;;;3.80;99.90;;;;;;5052010;28;20025;-77
2021/03/04 07:50:57;;;;;;;17.37;6.10;;;3.90;99.90;;;;;;5053260;28;20024;-76
2021/03/04 07:53:23;;;;;;;5.10;3.53;;;3.90;99.90;;;;;;5054268;28;20020;-78
2021/03/04 07:55:50;;;;;;;4.30;2.83;;;4.00;99.90;;;;;;5055822;28;20024;-77
2021/03/04 07:58:16;;;;;;;10.38;1.80;;;4.00;99.90;;;;;;5072734;28;20047;-77
2021/03/04 08:00:42;;;;;;;10.70;4.22;;;4.00;99.90;;;;;;5049096;28;20043;-77
2021/03/04 08:03:08;;;;;;;4.33;2.30;;;4.00;99.90;;;;;;5052142;28;20025;-75
2021/03/04 08:05:39;;;;;;;3.67;3.33;;;3.90;99.90;;;;;;5065387;28;20473;-79
2021/03/04 08:08:18;;;;;;;3.67;2.70;;;4.00;99.90;;;;;;5070654;28;20112;-77
2021/03/04 08:10:56;;;;;;;4.07;3.33;;;4.00;99.90;;;;;;5072081;28;20123;-80
2021/03/04 08:13:32;;;;;;;6.85;3.47;;;4.00;99.90;;;;;;5052365;28;20341;-79
2021/03/04 08:15:57;;;;;;;7.03;3.13;;;4.00;99.90;;;;;;5053104;28;20078;-77
2021/03/04 08:18:25;;;;;;;2.13;2.03;;;4.00;99.90;;;;;;5054728;28;20419;-85
2021/03/04 08:20:53;;;;;;;5.15;1.65;;;4.00;99.90;;;;;;5054191;28;20032;-78
2021/03/04 08:23:21;;;;;;;5.68;4.15;;;4.10;99.90;;;;;;5050100;28;20032;-78
2021/03/04 08:25:47;;;;;;;1.52;1.42;;;4.00;99.90;;;;;;5046751;28;20044;-81
2021/03/04 08:28:24;;;;;;;3.70;2.30;;;4.00;99.90;;;;;;5050695;28;20024;-78
2021/03/04 08:30:50;;;;;;;2.95;1.75;;;4.00;99.90;;;;;;5052257;28;20024;-76
2021/03/04 08:33:16;;;;;;;4.27;2.60;;;3.90;99.90;;;;;;5072893;28;20021;-78
2021/03/04 08:35:45;;;;;;;1.08;1.08;;;4.00;99.90;;;;;;5046523;28;20341;-77
2021/03/04 08:38:18;;;;;;;3.25;2.47;;;4.00;99.90;;;;;;5068615;28;20345;-80
2021/03/04 08:40:45;;;;;;;4.45;2.38;;;4.00;99.90;;;;;;5072170;28;20051;-80
2021/03/04 08:43:15;;;;;;;;;;;4.00;99.90;;;;;;5052205;28;20109;-77
2021/03/04 08:45:42;;;;;;;8.63;2.97;;;4.00;99.90;;;;;;5053815;28;19960;-78
2021/03/04 08:48:10;;;;;;;2.25;2.15;;;4.00;99.90;;;;;;5069485;28;20024;-78
2021/03/04 08:50:44;;;;;;;0.75;0.60;;;4.00;99.90;;;;;;5069471;28;20036;-77
2021/03/04 08:53:13;;;;;;;1.92;0.90;;;4.00;99.90;;;;;;5068595;28;20024;-77
2021/03/04 08:55:59;;;;;;;3.10;1.90;;;3.90;99.90;;;;;;5052885;28;20029;-78
2021/03/04 08:58:26;;;;;;;0.98;0.98;;;3.90;99.90;;;;;;5054402;28;20029;-79
2021/03/04 09:00:54;;;;;;;0.40;0.40;;;3.90;99.90;;;;;;5069126;28;20036;-81
2021/03/04 09:03:21;;;;;;;0.55;0.52;;;3.90;99.90;;;;;;5071236;28;20066;-77
2021/03/04 09:05:48;;;;;;;2.45;1.90;;;3.90;99.90;;;;;;5067176;28;20039;-78
2021/03/04 09:08:15;;;;;;;0.50;0.50;;;3.90;99.90;;;;;;5055207;28;20464;-77
2021/03/04 09:10:42;;;;;;;1.35;1.08;;;3.80;99.90;;;;;;5069338;28;21159;-77
2021/03/04 09:13:08;;;;;;;;;;;3.80;99.90;;;;;;5050224;28;20051;-77
2021/03/04 09:15:33;;;;;;;0.88;0.88;;;3.70;99.90;;;;;;5050804;28;20255;-78
2021/03/04 09:18:09;;;;;;;2.83;1.13;;;3.60;99.90;;;;;;5069160;28;20035;-77
2021/03/04 09:20:35;;;;;;;0.65;0.47;;;3.60;99.90;;;;;;5050383;28;20052;-79
2021/03/04 09:23:03;;;;;;;0.60;0.60;;;3.60;99.90;;;;;;5065474;28;20048;-78
2021/03/04 09:25:29;;;;;;;0.57;0.57;;;3.60;99.90;;;;;;5068782;28;20029;-79
2021/03/04 09:27:56;;;;;;;0.93;0.93;;;3.50;99.90;;;;;;5073816;28;20034;-76
2021/03/04 09:30:26;;;;;;;0.35;0.35;;;3.50;99.90;;;;;;5049116;28;20179;-76
2021/03/04 09:32:52;;;;;;;0.75;0.75;;;3.50;99.90;;;;;;5070699;28;20028;-77
2021/03/04 09:35:18;;;;;;;0.57;0.43;;;3.50;99.90;;;;;;5051678;28;20532;-78
2021/03/04 09:37:44;;;;;;;3.95;1.60;;;3.60;99.90;;;;;;5050553;28;20074;-78
2021/03/04 09:40:10;;;;;;;2.00;1.53;;;3.70;99.90;;;;;;5069467;28;20407;-77
2021/03/04 09:42:38;;;;;;;1.35;1.13;;;3.70;99.90;;;;;;5050092;28;20028;-78
2021/03/04 09:45:06;;;;;;;0.32;0.32;;;3.80;99.90;;;;;;5054441;28;20098;-77
2021/03/04 09:47:33;;;;;;;1.88;0.63;;;3.80;99.90;;;;;;5064075;28;20029;-79
2021/03/04 09:50:01;;;;;;;0.55;0.55;;;3.80;99.90;;;;;;5065785;28;20277;-78
2021/03/04 09:52:29;;;;;;;0.98;0.70;;;3.80;99.90;;;;;;5050778;28;20025;-76
2021/03/04 09:55:11;;;;;;;0.98;0.98;;;3.80;99.90;;;;;;5051430;28;20115;-79
2021/03/04 09:57:42;;;;;;;2.20;0.93;;;3.80;99.90;;;;;;5049545;28;20025;-81
2021/03/04 10:00:17;;;;;;;0.88;0.88;;;3.90;99.90;;;;;;5071414;28;20029;-77
2021/03/04 10:02:53;;;;;;;1.63;1.52;;;4.00;99.90;;;;;;5050386;28;20025;-77
2021/03/04 10:05:23;;;;;;;0.73;0.73;;;4.00;99.90;;;;;;5060674;28;20017;-78
2021/03/04 10:07:51;;;;;;;0.35;0.35;;;4.00;99.90;;;;;;5050519;28;20025;-78
2021/03/04 10:10:21;;;;;;;0.70;0.70;;;4.10;99.90;;;;;;5053258;28;20032;-78
2021/03/04 10:12:52;;;;;;;3.60;1.90;;;4.10;99.90;;;;;;5070702;28;20310;-77
2021/03/04 10:15:28;;;;;;;1.58;1.48;;;4.10;99.90;;;;;;5052265;28;20052;-79
2021/03/04 10:17:58;;;;;;;1.27;1.27;;;4.10;99.90;;;;;;5050020;28;20029;-78
2021/03/04 10:20:24;;;;;;;0.52;0.52;;;4.10;99.90;;;;;;5048180;28;20032;-82
2021/03/04 10:22:50;;;;;;;1.02;1.02;;;4.10;99.90;;;;;;5052172;28;20024;-79
2021/03/04 10:25:16;;;;;;;0.87;0.70;;;4.10;99.90;;;;;;5065582;28;20051;-77
2021/03/04 10:27:42;;;;;;;1.27;0.63;;;4.10;99.90;;;;;;5049712;28;20411;-77
2021/03/04 10:30:10;;;;;;;0.70;0.63;;;4.20;99.90;;;;;;5048457;28;20039;-80
2021/03/04 10:32:36;;;;;;;3.38;1.42;;;4.20;99.90;;;;;;5048188;28;20041;-81
2021/03/04 10:35:06;;;;;;;0.77;0.77;;;4.20;99.90;;;;;;5048863;28;20465;-78
2021/03/04 10:37:32;;;;;;;0.10;0.10;;;4.20;99.90;;;;;;5048900;28;20035;-80
2021/03/04 10:39:58;;;;;;;3.37;1.20;;;4.30;99.90;;;;;;5055637;28;20296;-81
2021/03/04 10:42:24;;;;;;;0.40;0.37;;;4.30;99.90;;;;;;5069189;28;20162;-80
2021/03/04 10:44:53;;;;;;;1.17;0.60;;;4.30;99.90;;;;;;5074377;28;20323;-81
2021/03/04 10:47:18;;;;;;;0.20;0.20;;;4.50;99.90;;;;;;5053307;28;20028;-79
2021/03/04 10:49:44;;;;;;;1.63;1.17;;;4.60;99.90;;;;;;5070209;28;20540;-78
2021/03/04 10:52:10;;;;;;;5.53;2.70;;;4.60;99.90;;;;;;5054327;28;20366;-76
2021/03/04 10:54:35;;;;;;;0.23;0.23;;;4.70;99.90;;;;;;5075335;28;20047;-80
2021/03/04 10:57:01;;;;;;;0.30;0.30;;;4.60;99.90;;;;;;5071871;28;20039;-79
2021/03/04 10:59:26;;;;;;;1.00;0.93;;;4.60;99.90;;;;;;5071494;28;20032;-77
2021/03/04 11:01:52;;;;;;;0.50;0.50;;;4.70;99.90;;;;;;5055270;28;20028;-80
2021/03/04 11:04:18;;;;;;;1.90;0.53;;;4.70;99.90;;;;;;5071225;28;20044;-77
2021/03/04 11:06:43;;;;;;;0.10;0.10;;;4.80;99.90;;;;;;5054541;28;20025;-78
2021/03/04 11:09:09;;;;;;;0.10;0.10;;;4.90;99.90;;;;;;5054204;28;20127;-79
2021/03/04 11:11:35;;;;;;;0.50;0.50;;;4.90;99.90;;;;;;5053423;28;20028;-77
2021/03/04 11:14:00;;;;;;;1.00;0.65;;;4.90;99.90;;;;;;5071001;28;20039;-80
2021/03/04 11:16:26;;;;;;;0.37;0.37;;;5.00;99.90;;;;;;5070826;28;20064;-82
2021/03/04 11:18:53;;;;;;;11.60;0.73;;;5.10;99.90;;;;;;5071140;28;20067;-77
2021/03/04 11:21:18;;;;;;;2.95;1.17;;;5.10;99.90;;;;;;5052924;28;20053;-84
2021/03/04 11:23:44;;;;;;;0.20;0.20;;;5.10;99.90;;;;;;5055272;28;20028;-77
2021/03/04 11:26:09;;;;;;;0.43;0.30;;;5.10;99.90;;;;;;5060215;28;20056;-77
2021/03/04 11:28:35;;;;;;;0.60;0.60;;;5.10;99.90;;;;;;5070726;28;20047;-76
2021/03/04 11:31:01;;;;;;;0.60;0.60;;;5.10;99.90;;;;;;5050858;28;20024;-80
2021/03/04 11:33:26;;;;;;;0.57;0.57;;;5.00;99.90;;;;;;5051667;28;20047;-76
2021/03/04 11:35:52;;;;;;;0.27;0.27;;;5.10;99.90;;;;;;5068087;28;20021;-79
2021/03/04 11:38:18;;;;;;;0.30;0.30;;;5.00;99.90;;;;;;5067965;28;20043;-78
2021/03/04 11:40:44;;;;;;;0.20;0.20;;;5.00;99.90;;;;;;5067300;28;20354;-81
2021/03/04 11:43:10;;;;;;;0.47;0.47;;;5.00;99.90;;;;;;5052867;28;20771;-77
2021/03/04 11:45:36;;;;;;;1.65;0.60;;;4.90;99.90;;;;;;5049558;28;20036;-77
2021/03/04 11:48:01;;;;;;;0.73;0.50;;;5.00;99.90;;;;;;5047806;28;20174;-85
2021/03/04 11:50:27;;;;;;;1.80;0.90;;;5.00;99.90;;;;;;5050822;28;20024;-76
2021/03/04 11:52:53;;;;;;;0.70;0.70;;;5.00;99.90;;;;;;5069642;28;20036;-76
2021/03/04 11:55:18;;;;;;;0.43;0.43;;;5.10;99.90;;;;;;5069810;28;20042;-77
2021/03/04 11:57:44;;;;;;;0.65;0.65;;;5.20;99.90;;;;;;5069726;28;20029;-77
2021/03/04 12:00:10;;;;;;;0.85;0.85;;;5.30;99.90;;;;;;5069473;28;20028;-77
2021/03/04 12:02:36;;;;;;;0.32;0.32;;;5.30;99.90;;;;;;5071108;28;20048;-76
2021/03/04 12:05:02;;;;;;;0.40;0.40;;;5.30;99.90;;;;;;5055920;28;20028;-78
2021/03/04 12:07:27;;;;;;;0.55;0.55;;;5.40;99.90;;;;;;5071336;28;20025;-83
2021/03/04 12:09:55;;;;;;;0.13;0.13;;;5.40;99.90;;;;;;5054884;28;20025;-82
2021/03/04 12:12:22;;;;;;;0.40;0.40;;;5.30;99.90;;;;;;5050603;28;20031;-78
2021/03/04 12:14:48;;;;;;;0.63;0.63;;;5.40;99.90;;;;;;5042444;28;20032;-79
2021/03/04 12:17:13;;;;;;;0.60;0.60;;;5.40;99.90;;;;;;5062898;28;20043;-76
2021/03/04 12:19:39;;;;;;;0.73;0.73;;;5.40;99.90;;;;;;5057756;28;20048;-77
2021/03/04 12:22:04;;;;;;;1.02;0.60;;;5.50;99.90;;;;;;5062393;28;20316;-80
2021/03/04 12:24:31;;;;;;;1.03;0.93;;;5.80;99.90;;;;;;5052984;28;20368;-86
2021/03/04 12:26:57;;;;;;;0.50;0.47;;;5.90;99.90;;;;;;5055014;28;20025;-82
2021/03/04 12:29:23;;;;;;;1.43;1.00;;;5.80;99.90;;;;;;5053938;28;20382;-78
2021/03/04 12:31:49;;;;;;;1.37;0.67;;;5.80;99.90;;;;;;5069492;28;20021;-81
2021/03/04 12:34:15;;;;;;;0.40;0.40;;;5.70;99.90;;;;;;5055054;28;20032;-77
2021/03/04 12:36:41;;;;;;;1.67;1.00;;;5.70;99.90;;;;;;5052531;28;20020;-79
2021/03/04 12:39:07;;;;;;;0.20;0.20;;;5.60;99.90;;;;;;5068738;28;20028;-78
2021/03/04 12:41:33;;;;;;;0.90;0.90;;;5.50;99.90;;;;;;5073215;28;20071;-82
2021/03/04 12:43:59;;;;;;;3.23;1.17;;;5.50;99.90;;;;;;5067120;28;20476;-77
2021/03/04 12:46:24;;;;;;;0.40;0.30;;;5.30;99.90;;;;;;5056724;28;20448;-80
2021/03/04 12:48:51;;;;;;;0.45;0.45;;;5.30;99.90;;;;;;5068641;28;20044;-78
2021/03/04 12:51:17;;;;;;;0.10;0.10;;;5.30;99.90;;;;;;5049850;28;20025;-77
2021/03/04 12:53:43;;;;;;;0.68;0.68;;;5.30;99.90;;;;;;5054109;28;20040;-76
2021/03/04 12:56:09;;;;;;;2.33;1.92;;;5.30;99.90;;;;;;5072093;28;20045;-77
2021/03/04 12:58:35;;;;;;;0.35;0.13;;;5.50;99.90;;;;;;5068346;28;20462;-77
2021/03/04 13:01:01;;;;;;;0.47;0.47;;;5.50;99.90;;;;;;5068666;28;20120;-80